Latest Weather Observations for kunanyi / Mount Wellington

IDT60901

Issued at 3:41 pm EDT Sunday 5 December 2021 (issued every 10 minutes, with the page automatically refreshed every 10 minutes)

About weather observations | Map of Hobart area stations | Latest observations for Hobart area | Other Formats
Station Details ID: 094087 Name: KUNANYI (MOUNT WELLINGTON PINNACLE) Lat: -42.90 Lon: 147.24 Height: 1260.47 m
Data from the previous 72 hours. | See also: Recent months at kunanyi / Mount Wellington
Date/Time
EDT
Temp
°C
App
Temp
°C
Dew
Point
°C
Rel
Hum
%
Delta-T
°C
Wind Press
QNH
hPa
Press
MSL
hPa
Rain since
9am
mm
Dir  Spd
km/h
Gust
km/h
Spd
kts
Gust
kts
05/03:30pm 8.8 4.5 3.4 69 2.5 N 15 22 8 12 - - 0.0
05/03:00pm 8.6 4.0 3.6 71 2.3 N 17 22 9 12 - - 0.0
05/02:30pm 8.5 4.0 4.3 75 2.0 N 17 22 9 12 - - 0.0
05/02:00pm 8.0 3.0 3.5 73 2.1 NNE 19 32 10 17 - - 0.0
05/01:30pm 7.8 2.1 2.9 71 2.2 NNE 22 41 12 22 - - 0.0
05/01:00pm 8.5 4.0 4.3 75 2.0 N 17 28 9 15 - - 0.0
05/12:30pm 8.2 3.0 2.7 68 2.5 NNW 19 33 10 18 - - 0.0
05/12:00pm 7.0 1.2 2.1 71 2.2 NW 22 32 12 17 - - 0.0
05/11:30am 6.1 1.5 1.8 74 1.9 NNW 15 22 8 12 - - 0.0
05/11:00am 5.7 -0.2 1.8 76 1.7 NW 22 43 12 23 - - 0.0
05/10:30am 5.2 -0.2 1.5 77 1.6 NW 19 32 10 17 - - 0.0
05/10:00am 5.0 -0.6 0.9 75 1.7 WNW 20 30 11 16 - - 0.0
05/09:30am 4.1 -0.6 0.8 79 1.4 NW 15 24 8 13 - - 0.0
05/09:00am 4.1 -1.7 0.1 75 1.6 WNW 20 33 11 18 - - 1.2
05/08:30am 2.4 -4.4 -1.7 74 1.6 WNW 24 32 13 17 - - 1.2
05/08:00am 2.0 -3.9 -2.5 72 1.7 WNW 19 24 10 13 - - 1.2
05/07:30am 1.7 -4.8 -2.4 74 1.5 NW 22 30 12 16 - - 1.2
05/07:00am 1.0 -5.6 -3.5 72 1.7 WNW 22 28 12 15 - - 1.2
05/06:30am 0.1 -7.0 -4.3 72 1.6 NW 24 30 13 16 - - 1.2
05/06:00am -0.6 -6.5 -6.0 67 1.8 NW 17 22 9 12 - - 1.2
05/05:30am -0.8 -7.7 -5.8 69 1.6 NW 22 32 12 17 - - 1.2
05/05:00am -1.6 -8.3 -4.6 80 1.0 WNW 22 26 12 14 - - 1.2
05/04:30am -1.6 -7.9 -4.4 81 0.9 W 20 24 11 13 - - 1.2
05/04:00am -1.6 -8.0 -4.8 79 1.0 WNW 20 24 11 13 - - 1.2
05/03:30am -1.6 -7.7 -4.3 82 0.9 WNW 19 24 10 13 - - 1.2
05/03:00am -1.4 -8.1 -4.1 82 0.9 WNW 22 24 12 13 - - 1.2
05/02:30am -1.7 -7.4 -3.7 86 0.6 WNW 17 20 9 11 - - 1.2
05/02:00am -1.9 -7.9 -2.7 94 0.2 WNW 19 20 10 11 - - 1.2
05/01:30am -1.5 -6.7 -2.9 90 0.4 WNW 15 17 8 9 - - 1.2
05/01:00am -1.7 -7.6 -2.0 98 0.0 WSW 19 19 10 10 - - 1.2
05/12:30am -1.5 -7.9 -1.9 97 0.1 W 22 26 12 14 - - 1.2
05/12:00am -1.2 -7.6 -1.8 96 0.2 WSW 22 26 12 14 - - 1.2
 
Date/Time
EDT
Temp
°C
App
Temp
°C
Dew
Point
°C
Rel
Hum
%
Delta-T
°C
Wind Press
QNH
hPa
Press
MSL
hPa
Rain since
9am
mm
Dir  Spd
km/h
Gust
km/h
Spd
kts
Gust
kts
04/11:30pm -1.0 -7.4 -1.7 95 0.2 WSW 22 28 12 15 - - 1.2
04/11:00pm -0.9 -6.3 -1.6 95 0.2 WSW 17 19 9 10 - - 1.2
04/10:30pm -1.0 -7.4 -1.7 95 0.2 WSW 22 26 12 14 - - 1.2
04/10:00pm -1.0 -7.8 -2.0 93 0.3 WSW 24 28 13 15 - - 1.2
04/09:30pm -0.9 -7.7 -1.9 93 0.3 WSW 24 30 13 16 - - 1.2
04/09:00pm -0.8 -8.4 -2.2 90 0.5 WSW 28 35 15 19 - - 1.2
04/08:30pm -0.5 -8.9 -2.7 85 0.8 WSW 32 39 17 21 - - 1.2
04/08:00pm 0.1 -6.1 -2.8 81 1.1 SW 20 33 11 18 - - 1.2
04/07:30pm 0.3 -6.9 -2.4 82 1.0 SW 26 33 14 18 - - 1.2
04/07:00pm 0.7 -6.9 -2.2 81 1.1 SW 28 37 15 20 - - 1.2
04/06:30pm 1.7 -6.0 -2.8 72 1.7 WSW 28 37 15 20 - - 1.2
04/06:00pm 2.1 -5.8 -1.7 76 1.5 WSW 30 48 16 26 - - 1.2
04/05:59pm 2.1 -5.4 -1.5 77 1.4 WSW 28 48 15 26 - - 1.2
04/05:30pm 1.2 -5.9 -1.0 85 0.9 SW 26 37 14 20 - - 1.2
04/05:00pm 1.5 -6.4 -1.6 80 1.2 SW 30 44 16 24 - - 1.2
04/04:30pm 1.6 -6.2 -0.5 86 0.8 SW 30 39 16 21 - - 1.0
04/04:00pm 1.1 -7.0 -0.2 91 0.5 SW 32 44 17 24 - - 1.0
04/03:30pm 1.0 -7.2 -0.9 87 0.7 SW 32 39 17 21 - - 1.0
04/03:00pm 0.1 -8.1 -0.9 93 0.4 SW 32 41 17 22 - - 1.0
04/02:30pm 0.8 -9.5 0.1 95 0.3 SW 44 57 24 31 - - 1.0
04/02:00pm 0.9 -11.3 0.3 96 0.2 SW 54 63 29 34 - - 0.8
04/01:33pm 0.2 -11.7 -0.1 98 0.1 SW 52 70 28 38 - - 0.8
04/01:30pm -0.1 -12.4 -0.2 99 0.0 SW 54 72 29 39 - - 0.8
04/01:06pm -1.6 -11.6 -1.6 100 0.0 WSW 41 80 22 43 - - 0.8
04/01:04pm -1.1 -10.3 -1.1 100 0.0 WSW 37 67 20 36 - - 0.6
04/01:00pm -0.2 -10.0 -0.2 100 0.0 SW 41 54 22 29 - - 0.4
04/12:34pm 1.5 -7.7 1.1 97 0.2 WSW 39 57 21 31 - - 0.4
04/12:30pm 1.3 -8.7 1.3 100 0.0 WSW 43 57 23 31 - - 0.4
04/12:00pm 0.5 -9.8 0.5 100 0.0 WSW 44 65 24 35 - - 0.4
04/11:30am 0.6 -11.3 -0.1 95 0.3 WSW 52 65 28 35 - - 0.4
04/11:00am -0.7 -11.1 -0.7 100 0.0 WSW 44 67 24 36 - - 0.4
04/10:30am -0.3 -9.7 -0.3 100 0.0 SW 39 57 21 31 - - 0.0
04/10:14am -0.2 -10.4 -0.2 100 0.0 SW 43 61 23 33 - - 0.0
04/10:00am -0.1 -12.4 -0.1 100 0.0 WSW 54 69 29 37 - - 0.0
04/09:36am -0.7 -12.7 -0.7 100 0.0 WSW 52 83 28 45 - - 0.0
04/09:30am 0.1 -12.1 0.1 100 0.0 WSW 54 69 29 37 - - 0.0
04/09:19am 0.0 -13.2 0.0 100 0.0 WSW 59 80 32 43 - - 0.0
04/09:00am 0.0 -14.3 0.0 100 0.0 WSW 65 80 35 43 - - 1.8
04/08:30am -0.1 -15.4 -0.1 100 0.0 WSW 70 93 38 50 - - 1.8
04/08:00am 0.0 -14.3 0.0 100 0.0 WSW 65 87 35 47 - - 1.8
04/07:52am 0.0 -15.7 0.0 100 0.0 WSW 72 93 39 50 - - 1.8
04/07:48am 0.1 -15.2 0.1 100 0.0 WSW 70 93 38 50 - - 1.8
04/07:33am 0.3 -12.8 0.3 100 0.0 WSW 59 78 32 42 - - 1.8
04/07:30am 0.4 -12.4 0.4 100 0.0 WSW 57 70 31 38 - - 1.8
04/07:09am 0.5 -12.6 0.5 100 0.0 WSW 59 78 32 42 - - 1.8
04/07:00am 0.5 -13.4 0.5 100 0.0 WSW 63 78 34 42 - - 1.8
04/06:30am 0.5 -12.6 0.5 100 0.0 WSW 59 82 32 44 - - 1.6
04/06:00am 0.9 -10.8 0.9 100 0.0 WSW 52 78 28 42 - - 1.4
04/05:30am 2.4 -10.0 2.4 100 0.0 W 57 83 31 45 - - 0.2
04/05:00am 2.6 -11.3 2.6 100 0.0 W 65 93 35 50 - - 0.2
04/04:30am 2.5 -9.7 2.5 100 0.0 W 56 82 30 44 - - 0.2
04/04:00am 2.0 -10.3 2.0 100 0.0 WNW 56 78 30 42 - - 0.2
04/03:30am 2.2 -11.4 2.2 100 0.0 W 63 91 34 49 - - 0.2
04/03:26am 2.4 -10.8 2.4 100 0.0 W 61 91 33 49 - - 0.2
04/03:02am 1.8 -9.0 1.8 100 0.0 W 48 76 26 41 - - 0.2
04/03:00am 1.8 -8.6 1.8 100 0.0 W 46 61 25 33 - - 0.2
04/02:31am 1.7 -8.8 1.7 100 0.0 W 46 67 25 36 - - 0.2
04/02:30am 1.7 -9.1 1.7 100 0.0 W 48 63 26 34 - - 0.2
04/02:19am 1.8 -10.7 1.7 99 0.0 W 57 76 31 41 - - 0.2
04/02:00am 1.6 -11.3 1.6 100 0.0 W 59 78 32 42 - - 0.2
04/01:47am 1.4 -10.6 1.4 100 0.0 W 54 76 29 41 - - 0.2
04/01:30am 1.3 -9.6 1.3 100 0.0 WNW 48 61 26 33 - - 0.2
04/01:00am 1.7 -8.3 0.7 93 0.4 WNW 43 61 23 33 - - 0.2
04/12:57am 1.7 -8.3 0.7 93 0.4 WNW 43 61 23 33 - - 0.2
04/12:30am 1.3 -9.4 0.1 92 0.5 WNW 46 57 25 31 - - 0.2
04/12:09am 1.8 -8.5 0.0 88 0.7 WNW 44 69 24 37 - - 0.2
04/12:00am 1.5 -8.9 -0.3 88 0.7 WNW 44 54 24 29 - - 0.2
 
Date/Time
EDT
Temp
°C
App
Temp
°C
Dew
Point
°C
Rel
Hum
%
Delta-T
°C
Wind Press
QNH
hPa
Press
MSL
hPa
Rain since
9am
mm
Dir  Spd
km/h
Gust
km/h
Spd
kts
Gust
kts
03/11:30pm 2.3 -9.4 -1.8 74 1.6 W 50 65 27 35 - - 0.2
03/11:23pm 2.3 -8.3 -1.5 76 1.5 W 44 65 24 35 - - 0.2
03/11:00pm 1.9 -7.8 -1.9 76 1.4 W 39 52 21 28 - - 0.2
03/10:30pm 2.2 -8.3 -2.9 69 1.9 WNW 43 54 23 29 - - 0.2
03/10:00pm 2.8 -6.4 -4.6 58 2.7 WNW 35 43 19 23 - - 0.2
03/09:30pm 3.2 -3.7 -2.3 67 2.1 WNW 24 33 13 18 - - 0.2
03/09:00pm 3.5 -3.2 1.2 85 1.0 W 26 32 14 17 - - 0.2
03/08:30pm 4.4 -2.2 1.9 84 1.1 WSW 26 35 14 19 - - 0.2
03/08:00pm 5.6 0.6 3.4 86 1.0 WNW 19 26 10 14 - - 0.2
03/07:30pm 6.7 2.3 4.5 86 1.0 WNW 17 24 9 13 - - 0.2
03/07:00pm 7.4 2.8 3.8 78 1.7 W 17 20 9 11 - - 0.2
03/06:30pm 7.5 3.1 2.6 71 2.2 WNW 15 19 8 10 - - 0.2
03/06:00pm 6.9 4.6 5.5 91 0.7 NNW 7 11 4 6 - - 0.2
03/05:30pm 6.8 3.9 4.6 86 1.0 NW 9 17 5 9 - - 0.2
03/05:00pm 7.3 4.9 4.4 82 1.4 N 6 13 3 7 - - 0.2
03/04:30pm 8.0 4.8 3.1 71 2.2 N 9 13 5 7 - - 0.2
03/04:00pm 7.8 4.7 3.8 76 1.9 NE 9 28 5 15 - - 0.2
03/03:30pm 10.4 6.0 2.7 59 3.6 NW 15 24 8 13 - - 0.2
03/03:00pm 9.0 3.6 1.4 59 3.4 N 19 28 10 15 - - 0.2
03/02:30pm 10.4 6.2 1.5 54 4.0 NNW 13 20 7 11 - - 0.2
03/02:00pm 9.6 5.3 0.8 54 3.9 NNE 13 24 7 13 - - 0.2
03/01:30pm 8.3 5.6 2.8 68 2.5 ENE 6 11 3 6 - - 0.2
03/01:00pm 7.0 4.3 2.5 73 2.0 NE 6 11 3 6 - - 0.2
03/12:30pm 6.8 2.7 2.1 72 2.1 SSW 13 35 7 19 - - 0.2
03/12:00pm 6.1 1.5 1.6 73 2.0 S 15 30 8 16 - - 0.2
03/11:30am 6.8 3.1 2.5 74 1.9 WNW 11 24 6 13 - - 0.2
03/11:00am 5.5 2.3 0.9 72 2.0 WSW 7 15 4 8 - - 0.0
03/10:30am 5.5 1.7 1.8 77 1.6 WNW 11 20 6 11 - - 0.0
03/10:00am 5.8 1.4 2.8 81 1.3 W 15 24 8 13 - - 0.0
03/09:30am 4.9 -0.6 0.5 73 1.8 W 19 28 10 15 - - 0.0
03/09:00am 4.4 -2.2 1.8 83 1.1 W 26 39 14 21 - - 41.0
03/08:56am 4.0 -3.8 1.9 86 0.9 WSW 32 43 17 23 - - 41.0
03/08:30am 3.1 -7.5 0.8 85 1.0 WSW 46 56 25 30 - - 41.0
03/08:00am 2.7 -9.1 0.6 86 0.9 WSW 52 61 28 33 - - 41.0
03/07:30am 2.0 -7.8 2.0 100 0.0 W 43 54 23 29 - - 41.0
03/07:00am 2.6 -4.3 2.6 100 0.0 W 28 41 15 22 - - 41.0
03/06:30am 2.5 -4.4 2.5 100 0.0 WSW 28 37 15 20 - - 41.0
03/06:00am 3.0 -2.1 3.0 100 0.0 WSW 19 24 10 13 - - 41.0
03/05:30am 3.2 -4.9 3.2 100 0.0 W 35 44 19 24 - - 41.0
03/05:00am 3.0 -8.8 3.0 100 0.0 WSW 54 61 29 33 - - 41.0
03/04:30am 3.0 -8.0 3.0 100 0.0 WSW 50 59 27 32 - - 41.0
03/04:00am 3.0 -8.8 2.7 98 0.1 WSW 54 67 29 36 - - 41.0
03/03:30am 2.5 -9.7 2.5 100 0.0 WSW 56 63 30 34 - - 41.0
03/03:00am 2.6 -10.2 2.6 100 0.0 WSW 59 70 32 38 - - 41.0
03/02:30am 2.8 -8.5 1.3 90 0.6 WSW 50 61 27 33 - - 41.0
03/02:00am 2.9 -8.8 1.0 87 0.8 WSW 52 63 28 34 - - 41.0
03/01:41am 3.3 -6.3 1.0 85 1.0 W 41 57 22 31 - - 41.0
03/01:30am 3.3 -6.7 0.7 83 1.1 WNW 43 56 23 30 - - 41.0
03/01:05am 3.8 -5.0 3.7 99 0.0 W 39 65 21 35 - - 41.0
03/01:00am 3.9 -4.5 3.9 100 0.0 W 37 54 20 29 - - 41.0
03/12:43am 4.3 -4.0 4.3 100 0.0 W 37 57 20 31 - - 41.0
03/12:30am 4.7 -3.1 4.7 100 0.0 W 35 48 19 26 - - 41.0
03/12:00am 5.4 -3.0 5.4 100 0.0 WNW 39 50 21 27 - - 41.0
 
Date/Time
EDT
Temp
°C
App
Temp
°C
Dew
Point
°C
Rel
Hum
%
Delta-T
°C
Wind Press
QNH
hPa
Press
MSL
hPa
Rain since
9am
mm
Dir  Spd
km/h
Gust
km/h
Spd
kts
Gust
kts
02/11:30pm 6.7 -0.7 6.7 100 0.0 WNW 35 44 19 24 - - 41.0
02/11:00pm 7.8 1.2 7.8 100 0.0 WNW 32 43 17 23 - - 40.8
02/10:30pm 9.1 5.1 9.1 100 0.0 NNW 20 37 11 20 - - 40.8
02/10:00pm 9.9 6.3 9.9 100 0.0 NW 19 24 10 13 - - 40.8
02/09:30pm 10.6 6.3 10.6 100 0.0 NW 24 39 13 21 - - 40.8
02/09:00pm 10.7 6.4 10.7 100 0.0 NW 24 33 13 18 - - 40.6
02/08:30pm 10.6 5.5 10.6 100 0.0 NNW 28 41 15 22 - - 38.0
02/08:20pm 10.8 5.4 10.8 100 0.0 NNW 30 48 16 26 - - 33.0
02/08:00pm 11.4 7.3 11.4 100 0.0 NNW 24 35 13 19 - - 21.0
02/07:30pm 11.1 7.7 11.1 100 0.0 NNW 20 35 11 19 - - 18.6
02/07:00pm 11.8 7.0 11.5 98 0.2 NW 28 35 15 19 - - 14.2
02/06:30pm 11.9 7.1 11.7 99 0.1 WNW 28 39 15 21 - - 14.0
02/06:05pm 10.7 1.8 10.7 100 0.0 WNW 48 67 26 36 - - 14.0
02/06:02pm 10.5 0.4 10.5 100 0.0 NW 54 72 29 39 - - 14.0
02/06:00pm 10.6 0.2 10.6 100 0.0 NW 56 72 30 39 - - 13.6
02/05:48pm 12.4 5.0 12.4 100 0.0 NW 43 82 23 44 - - 7.6
02/05:45pm 12.4 6.5 12.4 100 0.0 NW 35 57 19 31 - - 7.2
02/05:39pm 12.0 6.9 12.0 100 0.0 NNW 30 50 16 27 - - 7.0
02/05:30pm 11.2 6.2 9.6 90 0.9 NNW 26 74 14 40 - - 4.0
02/05:29pm 12.7 8.5 11.1 90 0.9 NNW 24 74 13 40 - - 3.2
02/05:27pm 14.6 11.5 11.7 83 1.7 N 19 39 10 21 - - 0.8
02/05:00pm 16.3 13.7 10.8 70 3.1 N 15 19 8 10 - - 0.0
02/04:30pm 17.8 16.9 12.5 71 3.1 N 9 15 5 8 - - 0.0
02/04:00pm 17.1 15.8 13.6 80 2.1 N 13 20 7 11 - - 0.0

Latest Capital City Observations: Canberra | Sydney | Melbourne | Brisbane | Adelaide | Perth | Hobart | Darwin

Other formats

Comma delimited format used in spreadsheet applications
http://www.bom.gov.au/fwo/IDT60901/IDT60901.95979.axf

JavaScript Object Notation format (JSON) in row-major order
http://www.bom.gov.au/fwo/IDT60901/IDT60901.95979.json

Data quality

Most of these data are generated automatically and are frequently updated. Quality checks on data are not normally performed. It is possible for incorrect values to appear. Refer to information at About Latest Weather Observations and please check the disclaimer before using these data.